sensor_id;sensor_type;location;lat;lon;timestamp;temperature;humidity
27797;DHT22;15177;50.844;4.412;2022-09-01T00:01:38;20.10;99.90
27797;DHT22;15177;50.844;4.412;2022-09-01T00:04:06;20.00;99.90
27797;DHT22;15177;50.844;4.412;2022-09-01T00:06:34;19.70;99.90
27797;DHT22;15177;50.844;4.412;2022-09-01T00:09:04;19.60;99.90
27797;DHT22;15177;50.844;4.412;2022-09-01T00:11:31;19.70;99.90
27797;DHT22;15177;50.844;4.412;2022-09-01T00:13:59;19.70;99.90
27797;DHT22;15177;50.844;4.412;2022-09-01T00:16:26;19.80;99.90
27797;DHT22;15177;50.844;4.412;2022-09-01T00:18:53;19.80;99.90
27797;DHT22;15177;50.844;4.412;2022-09-01T00:21:31;19.80;99.90
27797;DHT22;15177;50.844;4.412;2022-09-01T00:23:58;19.90;99.90
27797;DHT22;15177;50.844;4.412;2022-09-01T00:26:24;19.90;99.90
27797;DHT22;15177;50.844;4.412;2022-09-01T00:28:50;19.90;99.90
27797;DHT22;15177;50.844;4.412;2022-09-01T00:31:17;19.90;99.90
27797;DHT22;15177;50.844;4.412;2022-09-01T00:33:47;19.90;99.90
27797;DHT22;15177;50.844;4.412;2022-09-01T00:36:14;19.80;99.90
27797;DHT22;15177;50.844;4.412;2022-09-01T00:38:40;19.80;99.90
27797;DHT22;15177;50.844;4.412;2022-09-01T00:41:06;19.80;99.90
27797;DHT22;15177;50.844;4.412;2022-09-01T00:43:43;19.60;99.90
27797;DHT22;15177;50.844;4.412;2022-09-01T00:46:15;19.50;99.90
27797;DHT22;15177;50.844;4.412;2022-09-01T00:48:41;19.50;99.90
27797;DHT22;15177;50.844;4.412;2022-09-01T00:51:09;19.40;99.90
27797;DHT22;15177;50.844;4.412;2022-09-01T00:53:37;19.40;99.90
27797;DHT22;15177;50.844;4.412;2022-09-01T00:56:05;19.30;99.90
27797;DHT22;15177;50.844;4.412;2022-09-01T00:58:32;19.10;99.90
27797;DHT22;15177;50.844;4.412;2022-09-01T01:00:58;19.20;99.90
27797;DHT22;15177;50.844;4.412;2022-09-01T01:03:24;19.40;99.90
27797;DHT22;15177;50.844;4.412;2022-09-01T01:05:53;19.30;99.90
27797;DHT22;15177;50.844;4.412;2022-09-01T01:08:31;19.20;99.90
27797;DHT22;15177;50.844;4.412;2022-09-01T01:11:18;19.20;99.90
27797;DHT22;15177;50.844;4.412;2022-09-01T01:13:55;19.10;99.90
27797;DHT22;15177;50.844;4.412;2022-09-01T01:16:23;19.10;99.90
27797;DHT22;15177;50.844;4.412;2022-09-01T01:18:49;18.90;99.90
27797;DHT22;15177;50.844;4.412;2022-09-01T01:21:22;19.00;99.90
27797;DHT22;15177;50.844;4.412;2022-09-01T01:26:44;19.00;99.90
27797;DHT22;15177;50.844;4.412;2022-09-01T01:29:10;18.90;99.90
27797;DHT22;15177;50.844;4.412;2022-09-01T01:31:36;18.70;99.90
27797;DHT22;15177;50.844;4.412;2022-09-01T01:34:02;18.60;99.90
27797;DHT22;15177;50.844;4.412;2022-09-01T01:36:34;18.60;99.90
27797;DHT22;15177;50.844;4.412;2022-09-01T01:41:33;18.70;99.90
27797;DHT22;15177;50.844;4.412;2022-09-01T01:44:01;18.70;99.90
27797;DHT22;15177;50.844;4.412;2022-09-01T01:46:29;18.70;99.90
27797;DHT22;15177;50.844;4.412;2022-09-01T01:48:55;18.70;99.90
27797;DHT22;15177;50.844;4.412;2022-09-01T01:51:22;18.70;99.90
27797;DHT22;15177;50.844;4.412;2022-09-01T01:53:51;18.70;99.90
27797;DHT22;15177;50.844;4.412;2022-09-01T01:56:18;18.80;99.90
27797;DHT22;15177;50.844;4.412;2022-09-01T01:58:44;18.70;99.90
27797;DHT22;15177;50.844;4.412;2022-09-01T02:01:10;18.70;99.90
27797;DHT22;15177;50.844;4.412;2022-09-01T02:03:38;18.50;99.90
27797;DHT22;15177;50.844;4.412;2022-09-01T02:06:09;18.50;99.90
27797;DHT22;15177;50.844;4.412;2022-09-01T02:08:37;18.40;99.90
27797;DHT22;15177;50.844;4.412;2022-09-01T02:11:05;18.50;99.90
27797;DHT22;15177;50.844;4.412;2022-09-01T02:13:31;18.30;99.90
27797;DHT22;15177;50.844;4.412;2022-09-01T02:16:01;18.30;99.90
27797;DHT22;15177;50.844;4.412;2022-09-01T02:18:35;18.50;99.90
27797;DHT22;15177;50.844;4.412;2022-09-01T02:21:06;18.60;99.90
27797;DHT22;15177;50.844;4.412;2022-09-01T02:23:34;18.60;99.90
27797;DHT22;15177;50.844;4.412;2022-09-01T02:26:00;18.70;99.90
27797;DHT22;15177;50.844;4.412;2022-09-01T02:28:28;18.70;99.90
27797;DHT22;15177;50.844;4.412;2022-09-01T02:30:56;18.70;99.90
27797;DHT22;15177;50.844;4.412;2022-09-01T02:33:25;18.60;99.90
27797;DHT22;15177;50.844;4.412;2022-09-01T02:35:59;18.60;99.90
27797;DHT22;15177;50.844;4.412;2022-09-01T02:38:26;18.60;99.90
27797;DHT22;15177;50.844;4.412;2022-09-01T02:40:54;18.50;99.90
27797;DHT22;15177;50.844;4.412;2022-09-01T02:43:21;18.60;99.90
27797;DHT22;15177;50.844;4.412;2022-09-01T02:45:48;18.60;99.90
27797;DHT22;15177;50.844;4.412;2022-09-01T02:48:18;18.40;99.90
27797;DHT22;15177;50.844;4.412;2022-09-01T02:50:47;18.40;99.90
27797;DHT22;15177;50.844;4.412;2022-09-01T02:53:13;18.50;99.90
27797;DHT22;15177;50.844;4.412;2022-09-01T02:55:40;18.50;99.90
27797;DHT22;15177;50.844;4.412;2022-09-01T02:58:06;18.50;99.90
27797;DHT22;15177;50.844;4.412;2022-09-01T03:00:35;18.60;99.90
27797;DHT22;15177;50.844;4.412;2022-09-01T03:03:05;18.70;99.90
27797;DHT22;15177;50.844;4.412;2022-09-01T03:05:31;18.70;99.90
27797;DHT22;15177;50.844;4.412;2022-09-01T03:08:01;18.80;99.90
27797;DHT22;15177;50.844;4.412;2022-09-01T03:10:32;18.60;99.90
27797;DHT22;15177;50.844;4.412;2022-09-01T03:13:05;18.60;99.90
27797;DHT22;15177;50.844;4.412;2022-09-01T03:15:33;18.60;99.90
27797;DHT22;15177;50.844;4.412;2022-09-01T03:18:01;18.60;99.90
27797;DHT22;15177;50.844;4.412;2022-09-01T03:20:28;18.70;99.90
27797;DHT22;15177;50.844;4.412;2022-09-01T03:22:56;18.40;99.90
27797;DHT22;15177;50.844;4.412;2022-09-01T03:25:24;18.50;99.90
27797;DHT22;15177;50.844;4.412;2022-09-01T03:27:52;18.70;99.90
27797;DHT22;15177;50.844;4.412;2022-09-01T03:30:19;18.50;99.90
27797;DHT22;15177;50.844;4.412;2022-09-01T03:32:45;18.60;99.90
27797;DHT22;15177;50.844;4.412;2022-09-01T03:35:11;18.50;99.90
27797;DHT22;15177;50.844;4.412;2022-09-01T03:37:37;18.40;99.90
27797;DHT22;15177;50.844;4.412;2022-09-01T03:40:05;18.40;99.90
27797;DHT22;15177;50.844;4.412;2022-09-01T03:42:34;18.40;99.90
27797;DHT22;15177;50.844;4.412;2022-09-01T03:45:00;18.30;99.90
27797;DHT22;15177;50.844;4.412;2022-09-01T03:47:28;18.30;99.90
27797;DHT22;15177;50.844;4.412;2022-09-01T03:49:53;18.30;99.90
27797;DHT22;15177;50.844;4.412;2022-09-01T03:52:19;18.20;99.90
27797;DHT22;15177;50.844;4.412;2022-09-01T03:54:51;18.20;99.90
27797;DHT22;15177;50.844;4.412;2022-09-01T03:57:18;18.30;99.90
27797;DHT22;15177;50.844;4.412;2022-09-01T03:59:43;18.20;99.90
27797;DHT22;15177;50.844;4.412;2022-09-01T04:02:09;18.10;99.90
27797;DHT22;15177;50.844;4.412;2022-09-01T04:04:35;18.20;99.90
27797;DHT22;15177;50.844;4.412;2022-09-01T04:07:01;18.20;99.90
27797;DHT22;15177;50.844;4.412;2022-09-01T04:09:28;18.10;99.90
27797;DHT22;15177;50.844;4.412;2022-09-01T04:11:53;18.00;99.90
27797;DHT22;15177;50.844;4.412;2022-09-01T04:14:19;18.10;99.90
27797;DHT22;15177;50.844;4.412;2022-09-01T04:16:47;18.10;99.90
27797;DHT22;15177;50.844;4.412;2022-09-01T04:19:36;17.80;99.90
27797;DHT22;15177;50.844;4.412;2022-09-01T04:22:05;18.00;99.90
27797;DHT22;15177;50.844;4.412;2022-09-01T04:24:32;18.00;99.90
27797;DHT22;15177;50.844;4.412;2022-09-01T04:27:02;17.90;99.90
27797;DHT22;15177;50.844;4.412;2022-09-01T04:29:29;17.70;99.90
27797;DHT22;15177;50.844;4.412;2022-09-01T04:31:58;17.80;99.90
27797;DHT22;15177;50.844;4.412;2022-09-01T04:34:27;17.90;99.90
27797;DHT22;15177;50.844;4.412;2022-09-01T04:36:53;17.90;99.90
27797;DHT22;15177;50.844;4.412;2022-09-01T04:39:22;17.80;99.90
27797;DHT22;15177;50.844;4.412;2022-09-01T04:41:48;17.80;99.90
27797;DHT22;15177;50.844;4.412;2022-09-01T04:44:15;17.70;99.90
27797;DHT22;15177;50.844;4.412;2022-09-01T04:46:44;17.60;99.90
27797;DHT22;15177;50.844;4.412;2022-09-01T04:49:16;17.50;99.90
27797;DHT22;15177;50.844;4.412;2022-09-01T04:51:48;17.80;99.90
27797;DHT22;15177;50.844;4.412;2022-09-01T04:54:14;17.60;99.90
27797;DHT22;15177;50.844;4.412;2022-09-01T04:56:44;17.70;99.90
27797;DHT22;15177;50.844;4.412;2022-09-01T04:59:11;17.70;99.90
27797;DHT22;15177;50.844;4.412;2022-09-01T05:01:38;17.70;99.90
27797;DHT22;15177;50.844;4.412;2022-09-01T05:04:26;17.80;99.90
27797;DHT22;15177;50.844;4.412;2022-09-01T05:06:54;17.60;99.90
27797;DHT22;15177;50.844;4.412;2022-09-01T05:09:29;17.80;99.90
27797;DHT22;15177;50.844;4.412;2022-09-01T05:11:56;17.70;99.90
27797;DHT22;15177;50.844;4.412;2022-09-01T05:14:23;17.60;99.90
27797;DHT22;15177;50.844;4.412;2022-09-01T05:16:50;17.50;99.90
27797;DHT22;15177;50.844;4.412;2022-09-01T05:19:20;17.50;99.90
27797;DHT22;15177;50.844;4.412;2022-09-01T05:21:49;17.50;99.90
27797;DHT22;15177;50.844;4.412;2022-09-01T05:24:19;17.70;99.90
27797;DHT22;15177;50.844;4.412;2022-09-01T05:26:47;17.60;99.90
27797;DHT22;15177;50.844;4.412;2022-09-01T05:29:15;17.50;99.90
27797;DHT22;15177;50.844;4.412;2022-09-01T05:31:46;17.50;99.90
27797;DHT22;15177;50.844;4.412;2022-09-01T05:34:13;17.70;99.90
27797;DHT22;15177;50.844;4.412;2022-09-01T05:36:51;17.70;99.90
27797;DHT22;15177;50.844;4.412;2022-09-01T05:39:17;17.80;99.90
27797;DHT22;15177;50.844;4.412;2022-09-01T05:41:43;17.80;99.90
27797;DHT22;15177;50.844;4.412;2022-09-01T05:44:11;17.70;99.90
27797;DHT22;15177;50.844;4.412;2022-09-01T05:46:39;17.90;99.90
27797;DHT22;15177;50.844;4.412;2022-09-01T05:49:06;18.00;99.90
27797;DHT22;15177;50.844;4.412;2022-09-01T05:51:34;18.00;99.90
27797;DHT22;15177;50.844;4.412;2022-09-01T05:54:02;17.90;99.90
27797;DHT22;15177;50.844;4.412;2022-09-01T05:56:29;17.90;99.90
27797;DHT22;15177;50.844;4.412;2022-09-01T05:58:55;18.00;99.90
27797;DHT22;15177;50.844;4.412;2022-09-01T06:01:26;18.10;99.90
27797;DHT22;15177;50.844;4.412;2022-09-01T06:03:54;18.10;99.90
27797;DHT22;15177;50.844;4.412;2022-09-01T06:06:22;18.20;99.90
27797;DHT22;15177;50.844;4.412;2022-09-01T06:08:50;18.30;99.90
27797;DHT22;15177;50.844;4.412;2022-09-01T06:11:17;18.30;99.90
27797;DHT22;15177;50.844;4.412;2022-09-01T06:13:46;18.60;99.90
27797;DHT22;15177;50.844;4.412;2022-09-01T06:16:13;19.60;99.90
27797;DHT22;15177;50.844;4.412;2022-09-01T06:18:40;20.50;99.90
27797;DHT22;15177;50.844;4.412;2022-09-01T06:21:08;21.70;97.60
27797;DHT22;15177;50.844;4.412;2022-09-01T06:23:39;22.50;94.50
27797;DHT22;15177;50.844;4.412;2022-09-01T06:26:05;23.50;91.60
27797;DHT22;15177;50.844;4.412;2022-09-01T06:28:32;24.00;88.90
27797;DHT22;15177;50.844;4.412;2022-09-01T06:30:58;24.00;88.60
27797;DHT22;15177;50.844;4.412;2022-09-01T06:33:24;24.20;87.00
27797;DHT22;15177;50.844;4.412;2022-09-01T06:35:50;24.40;85.10
27797;DHT22;15177;50.844;4.412;2022-09-01T06:38:18;25.30;81.10
27797;DHT22;15177;50.844;4.412;2022-09-01T06:40:44;25.60;80.00
27797;DHT22;15177;50.844;4.412;2022-09-01T06:43:12;26.30;76.40
27797;DHT22;15177;50.844;4.412;2022-09-01T06:45:41;25.70;77.00
27797;DHT22;15177;50.844;4.412;2022-09-01T06:48:07;26.00;77.00
27797;DHT22;15177;50.844;4.412;2022-09-01T06:50:33;26.20;76.20
27797;DHT22;15177;50.844;4.412;2022-09-01T06:52:59;26.50;74.60
27797;DHT22;15177;50.844;4.412;2022-09-01T06:55:39;25.80;76.80
27797;DHT22;15177;50.844;4.412;2022-09-01T06:58:10;25.00;78.90
27797;DHT22;15177;50.844;4.412;2022-09-01T07:00:41;25.30;78.30
27797;DHT22;15177;50.844;4.412;2022-09-01T07:03:14;25.90;77.20
27797;DHT22;15177;50.844;4.412;2022-09-01T07:05:41;25.50;78.80
27797;DHT22;15177;50.844;4.412;2022-09-01T07:08:09;26.60;76.10
27797;DHT22;15177;50.844;4.412;2022-09-01T07:10:46;26.60;75.20
27797;DHT22;15177;50.844;4.412;2022-09-01T07:13:14;27.80;71.20
27797;DHT22;15177;50.844;4.412;2022-09-01T07:15:43;28.90;69.30
27797;DHT22;15177;50.844;4.412;2022-09-01T07:18:09;29.10;67.60
27797;DHT22;15177;50.844;4.412;2022-09-01T07:20:39;29.40;65.90
27797;DHT22;15177;50.844;4.412;2022-09-01T07:23:07;29.10;66.20
27797;DHT22;15177;50.844;4.412;2022-09-01T07:25:44;29.00;65.50
27797;DHT22;15177;50.844;4.412;2022-09-01T07:28:13;29.50;65.20
27797;DHT22;15177;50.844;4.412;2022-09-01T07:30:42;30.40;62.80
27797;DHT22;15177;50.844;4.412;2022-09-01T07:33:12;30.20;62.60
27797;DHT22;15177;50.844;4.412;2022-09-01T07:35:39;29.70;63.40
27797;DHT22;15177;50.844;4.412;2022-09-01T07:38:06;30.80;61.90
27797;DHT22;15177;50.844;4.412;2022-09-01T07:40:35;29.70;63.20
27797;DHT22;15177;50.844;4.412;2022-09-01T07:43:07;30.00;62.40
27797;DHT22;15177;50.844;4.412;2022-09-01T07:45:35;30.30;62.30
27797;DHT22;15177;50.844;4.412;2022-09-01T07:48:05;29.60;62.90
27797;DHT22;15177;50.844;4.412;2022-09-01T07:50:32;29.10;64.10
27797;DHT22;15177;50.844;4.412;2022-09-01T07:52:59;30.20;62.50
27797;DHT22;15177;50.844;4.412;2022-09-01T07:55:26;30.60;61.40
27797;DHT22;15177;50.844;4.412;2022-09-01T07:57:52;31.20;59.80
27797;DHT22;15177;50.844;4.412;2022-09-01T08:00:18;30.90;60.70
27797;DHT22;15177;50.844;4.412;2022-09-01T08:02:46;30.80;59.80
27797;DHT22;15177;50.844;4.412;2022-09-01T08:05:15;29.60;62.30
27797;DHT22;15177;50.844;4.412;2022-09-01T08:07:42;29.30;62.50
27797;DHT22;15177;50.844;4.412;2022-09-01T08:10:08;29.10;63.00
27797;DHT22;15177;50.844;4.412;2022-09-01T08:12:34;28.20;65.40
27797;DHT22;15177;50.844;4.412;2022-09-01T08:15:05;28.20;66.50
27797;DHT22;15177;50.844;4.412;2022-09-01T08:17:31;29.00;65.50
27797;DHT22;15177;50.844;4.412;2022-09-01T08:19:56;29.30;64.90
27797;DHT22;15177;50.844;4.412;2022-09-01T08:22:22;29.70;63.00
27797;DHT22;15177;50.844;4.412;2022-09-01T08:24:50;30.50;61.60
27797;DHT22;15177;50.844;4.412;2022-09-01T08:27:16;31.30;59.40
27797;DHT22;15177;50.844;4.412;2022-09-01T08:29:42;31.60;58.90
27797;DHT22;15177;50.844;4.412;2022-09-01T08:32:09;32.70;58.00
27797;DHT22;15177;50.844;4.412;2022-09-01T08:34:36;33.10;56.00
27797;DHT22;15177;50.844;4.412;2022-09-01T08:37:03;33.20;55.80
27797;DHT22;15177;50.844;4.412;2022-09-01T08:39:29;34.00;54.40
27797;DHT22;15177;50.844;4.412;2022-09-01T08:42:12;34.00;54.30
27797;DHT22;15177;50.844;4.412;2022-09-01T08:45:06;33.60;54.50
27797;DHT22;15177;50.844;4.412;2022-09-01T08:47:33;33.20;53.60
27797;DHT22;15177;50.844;4.412;2022-09-01T08:50:00;32.40;55.30
27797;DHT22;15177;50.844;4.412;2022-09-01T08:52:57;31.90;56.40
27797;DHT22;15177;50.844;4.412;2022-09-01T08:55:21;31.20;57.30
27797;DHT22;15177;50.844;4.412;2022-09-01T08:57:53;30.80;58.20
27797;DHT22;15177;50.844;4.412;2022-09-01T09:00:28;30.60;58.70
27797;DHT22;15177;50.844;4.412;2022-09-01T09:11:00;33.00;55.10
27797;DHT22;15177;50.844;4.412;2022-09-01T09:18:52;31.50;57.10
27797;DHT22;15177;50.844;4.412;2022-09-01T09:24:00;32.70;55.40
27797;DHT22;15177;50.844;4.412;2022-09-01T09:26:30;31.30;56.80
27797;DHT22;15177;50.844;4.412;2022-09-01T09:28:56;30.20;59.10
27797;DHT22;15177;50.844;4.412;2022-09-01T09:33:50;31.50;57.60
27797;DHT22;15177;50.844;4.412;2022-09-01T09:36:17;32.00;55.70
27797;DHT22;15177;50.844;4.412;2022-09-01T09:38:45;33.10;54.30
27797;DHT22;15177;50.844;4.412;2022-09-01T09:41:17;32.80;54.90
27797;DHT22;15177;50.844;4.412;2022-09-01T09:43:59;32.10;55.40
27797;DHT22;15177;50.844;4.412;2022-09-01T09:46:35;31.40;55.30
27797;DHT22;15177;50.844;4.412;2022-09-01T09:51:36;32.20;54.00
27797;DHT22;15177;50.844;4.412;2022-09-01T09:54:22;31.70;54.20
27797;DHT22;15177;50.844;4.412;2022-09-01T09:57:07;31.60;53.60
27797;DHT22;15177;50.844;4.412;2022-09-01T10:00:01;32.40;52.10
27797;DHT22;15177;50.844;4.412;2022-09-01T10:02:31;32.80;51.50
27797;DHT22;15177;50.844;4.412;2022-09-01T10:05:00;32.00;50.90
27797;DHT22;15177;50.844;4.412;2022-09-01T10:07:35;32.80;49.60
27797;DHT22;15177;50.844;4.412;2022-09-01T10:10:07;31.30;51.20
27797;DHT22;15177;50.844;4.412;2022-09-01T10:12:33;30.70;52.30
27797;DHT22;15177;50.844;4.412;2022-09-01T10:15:05;30.20;52.90
27797;DHT22;15177;50.844;4.412;2022-09-01T10:17:39;29.80;54.10
27797;DHT22;15177;50.844;4.412;2022-09-01T10:20:20;30.90;53.60
27797;DHT22;15177;50.844;4.412;2022-09-01T10:22:46;30.80;52.40
27797;DHT22;15177;50.844;4.412;2022-09-01T10:25:25;31.10;52.70
27797;DHT22;15177;50.844;4.412;2022-09-01T10:27:57;30.80;52.50
27797;DHT22;15177;50.844;4.412;2022-09-01T10:30:24;30.60;52.20
27797;DHT22;15177;50.844;4.412;2022-09-01T10:32:51;30.70;52.50
27797;DHT22;15177;50.844;4.412;2022-09-01T10:35:29;30.30;52.80
27797;DHT22;15177;50.844;4.412;2022-09-01T10:37:57;29.90;52.80
27797;DHT22;15177;50.844;4.412;2022-09-01T10:42:55;31.00;51.60
27797;DHT22;15177;50.844;4.412;2022-09-01T10:45:32;30.90;50.70
27797;DHT22;15177;50.844;4.412;2022-09-01T10:48:37;30.40;51.60
27797;DHT22;15177;50.844;4.412;2022-09-01T10:53:54;30.20;51.10
27797;DHT22;15177;50.844;4.412;2022-09-01T11:04:12;29.40;53.10
27797;DHT22;15177;50.844;4.412;2022-09-01T11:09:31;30.10;51.80
27797;DHT22;15177;50.844;4.412;2022-09-01T11:14:51;29.50;52.20
27797;DHT22;15177;50.844;4.412;2022-09-01T11:17:21;29.00;52.90
27797;DHT22;15177;50.844;4.412;2022-09-01T11:22:37;28.00;54.00
27797;DHT22;15177;50.844;4.412;2022-09-01T11:33:44;26.90;55.30
27797;DHT22;15177;50.844;4.412;2022-09-01T11:38:57;26.50;56.70
27797;DHT22;15177;50.844;4.412;2022-09-01T11:44:14;26.30;56.70
27797;DHT22;15177;50.844;4.412;2022-09-01T11:46:41;26.40;56.70
27797;DHT22;15177;50.844;4.412;2022-09-01T11:49:25;26.00;57.40
27797;DHT22;15177;50.844;4.412;2022-09-01T11:51:52;26.30;57.40
27797;DHT22;15177;50.844;4.412;2022-09-01T11:54:18;26.30;56.80
27797;DHT22;15177;50.844;4.412;2022-09-01T11:56:44;26.50;56.70
27797;DHT22;15177;50.844;4.412;2022-09-01T11:59:10;26.80;56.40
27797;DHT22;15177;50.844;4.412;2022-09-01T12:01:38;27.00;56.10
27797;DHT22;15177;50.844;4.412;2022-09-01T12:04:20;26.70;56.20
27797;DHT22;15177;50.844;4.412;2022-09-01T12:06:56;26.40;57.30
27797;DHT22;15177;50.844;4.412;2022-09-01T12:09:34;26.30;57.40
27797;DHT22;15177;50.844;4.412;2022-09-01T12:12:03;26.30;57.70
27797;DHT22;15177;50.844;4.412;2022-09-01T12:14:29;26.30;57.90
27797;DHT22;15177;50.844;4.412;2022-09-01T12:17:01;26.50;57.50
27797;DHT22;15177;50.844;4.412;2022-09-01T12:19:33;26.40;57.50
27797;DHT22;15177;50.844;4.412;2022-09-01T12:22:18;26.20;58.10
27797;DHT22;15177;50.844;4.412;2022-09-01T12:24:49;26.00;58.30
27797;DHT22;15177;50.844;4.412;2022-09-01T12:27:15;25.80;58.90
27797;DHT22;15177;50.844;4.412;2022-09-01T12:29:42;26.00;58.70
27797;DHT22;15177;50.844;4.412;2022-09-01T12:32:08;26.20;58.00
27797;DHT22;15177;50.844;4.412;2022-09-01T12:39:39;26.80;56.80
27797;DHT22;15177;50.844;4.412;2022-09-01T12:47:10;26.90;56.50
27797;DHT22;15177;50.844;4.412;2022-09-01T12:49:44;26.90;56.70
27797;DHT22;15177;50.844;4.412;2022-09-01T12:52:20;26.30;57.30
27797;DHT22;15177;50.844;4.412;2022-09-01T12:57:26;25.90;57.90
27797;DHT22;15177;50.844;4.412;2022-09-01T13:05:42;25.60;58.90
27797;DHT22;15177;50.844;4.412;2022-09-01T13:08:15;25.70;59.10
27797;DHT22;15177;50.844;4.412;2022-09-01T13:10:44;25.90;59.40
27797;DHT22;15177;50.844;4.412;2022-09-01T13:13:11;26.10;59.00
27797;DHT22;15177;50.844;4.412;2022-09-01T13:15:39;26.00;58.60
27797;DHT22;15177;50.844;4.412;2022-09-01T13:18:06;25.90;59.30
27797;DHT22;15177;50.844;4.412;2022-09-01T13:20:32;25.90;58.90
27797;DHT22;15177;50.844;4.412;2022-09-01T13:22:58;26.10;58.60
27797;DHT22;15177;50.844;4.412;2022-09-01T13:25:24;26.10;58.60
27797;DHT22;15177;50.844;4.412;2022-09-01T13:27:50;26.30;57.90
27797;DHT22;15177;50.844;4.412;2022-09-01T13:30:24;26.60;57.50
27797;DHT22;15177;50.844;4.412;2022-09-01T13:32:53;26.50;57.30
27797;DHT22;15177;50.844;4.412;2022-09-01T13:35:21;26.60;57.40
27797;DHT22;15177;50.844;4.412;2022-09-01T13:37:48;26.50;57.30
27797;DHT22;15177;50.844;4.412;2022-09-01T13:40:15;26.40;57.40
27797;DHT22;15177;50.844;4.412;2022-09-01T13:42:44;26.10;57.90
27797;DHT22;15177;50.844;4.412;2022-09-01T13:45:11;26.20;57.60
27797;DHT22;15177;50.844;4.412;2022-09-01T13:47:42;26.10;57.70
27797;DHT22;15177;50.844;4.412;2022-09-01T13:50:09;26.20;58.20
27797;DHT22;15177;50.844;4.412;2022-09-01T13:52:39;26.10;58.20
27797;DHT22;15177;50.844;4.412;2022-09-01T13:55:06;26.00;58.10
27797;DHT22;15177;50.844;4.412;2022-09-01T13:57:33;25.80;58.80
27797;DHT22;15177;50.844;4.412;2022-09-01T13:59:59;25.60;59.00
27797;DHT22;15177;50.844;4.412;2022-09-01T14:02:26;25.80;59.10
27797;DHT22;15177;50.844;4.412;2022-09-01T14:04:52;26.20;58.10
27797;DHT22;15177;50.844;4.412;2022-09-01T14:07:18;26.20;57.60
27797;DHT22;15177;50.844;4.412;2022-09-01T14:09:45;26.00;58.00
27797;DHT22;15177;50.844;4.412;2022-09-01T14:12:11;25.80;58.30
27797;DHT22;15177;50.844;4.412;2022-09-01T14:14:38;26.10;58.30
27797;DHT22;15177;50.844;4.412;2022-09-01T14:17:12;26.50;57.90
27797;DHT22;15177;50.844;4.412;2022-09-01T14:19:37;26.40;57.70
27797;DHT22;15177;50.844;4.412;2022-09-01T14:22:03;26.70;57.30
27797;DHT22;15177;50.844;4.412;2022-09-01T14:24:32;26.70;56.70
27797;DHT22;15177;50.844;4.412;2022-09-01T14:26:58;26.40;56.50
27797;DHT22;15177;50.844;4.412;2022-09-01T14:29:25;26.50;56.50
27797;DHT22;15177;50.844;4.412;2022-09-01T14:31:52;26.40;56.70
27797;DHT22;15177;50.844;4.412;2022-09-01T14:34:19;26.20;57.10
27797;DHT22;15177;50.844;4.412;2022-09-01T14:36:45;26.10;57.40
27797;DHT22;15177;50.844;4.412;2022-09-01T14:39:11;26.10;57.30
27797;DHT22;15177;50.844;4.412;2022-09-01T14:41:37;26.20;56.90
27797;DHT22;15177;50.844;4.412;2022-09-01T14:44:03;26.20;57.20
27797;DHT22;15177;50.844;4.412;2022-09-01T14:46:30;26.20;56.90
27797;DHT22;15177;50.844;4.412;2022-09-01T14:49:00;26.20;56.90
27797;DHT22;15177;50.844;4.412;2022-09-01T14:51:28;26.00;56.60
27797;DHT22;15177;50.844;4.412;2022-09-01T14:53:54;25.80;56.90
27797;DHT22;15177;50.844;4.412;2022-09-01T14:56:21;25.70;57.00
27797;DHT22;15177;50.844;4.412;2022-09-01T14:58:49;25.90;57.00
27797;DHT22;15177;50.844;4.412;2022-09-01T15:01:17;26.00;56.50
27797;DHT22;15177;50.844;4.412;2022-09-01T15:03:44;26.20;56.40
27797;DHT22;15177;50.844;4.412;2022-09-01T15:06:14;26.00;56.40
27797;DHT22;15177;50.844;4.412;2022-09-01T15:08:41;25.90;56.50
27797;DHT22;15177;50.844;4.412;2022-09-01T15:11:12;26.00;56.50
27797;DHT22;15177;50.844;4.412;2022-09-01T15:13:39;26.00;56.20
27797;DHT22;15177;50.844;4.412;2022-09-01T15:16:11;26.00;56.10
27797;DHT22;15177;50.844;4.412;2022-09-01T15:18:37;25.60;56.40
27797;DHT22;15177;50.844;4.412;2022-09-01T15:21:04;25.60;56.40
27797;DHT22;15177;50.844;4.412;2022-09-01T15:23:29;25.70;56.40
27797;DHT22;15177;50.844;4.412;2022-09-01T15:25:55;25.80;56.20
27797;DHT22;15177;50.844;4.412;2022-09-01T15:28:25;25.80;55.70
27797;DHT22;15177;50.844;4.412;2022-09-01T15:30:52;25.80;56.00
27797;DHT22;15177;50.844;4.412;2022-09-01T15:33:19;26.00;55.70
27797;DHT22;15177;50.844;4.412;2022-09-01T15:35:45;25.90;55.30
27797;DHT22;15177;50.844;4.412;2022-09-01T15:38:13;25.90;55.40
27797;DHT22;15177;50.844;4.412;2022-09-01T15:40:41;26.10;54.60
27797;DHT22;15177;50.844;4.412;2022-09-01T15:43:07;26.30;54.50
27797;DHT22;15177;50.844;4.412;2022-09-01T15:45:33;26.20;54.30
27797;DHT22;15177;50.844;4.412;2022-09-01T15:48:00;26.00;54.40
27797;DHT22;15177;50.844;4.412;2022-09-01T15:50:26;25.90;54.70
27797;DHT22;15177;50.844;4.412;2022-09-01T15:53:10;25.90;54.60
27797;DHT22;15177;50.844;4.412;2022-09-01T15:55:40;26.00;54.50
27797;DHT22;15177;50.844;4.412;2022-09-01T15:58:08;26.10;54.70
27797;DHT22;15177;50.844;4.412;2022-09-01T16:00:34;26.20;54.00
27797;DHT22;15177;50.844;4.412;2022-09-01T16:03:00;26.00;54.20
27797;DHT22;15177;50.844;4.412;2022-09-01T16:05:35;26.20;54.10
27797;DHT22;15177;50.844;4.412;2022-09-01T16:08:02;26.00;54.10
27797;DHT22;15177;50.844;4.412;2022-09-01T16:10:30;25.80;54.40
27797;DHT22;15177;50.844;4.412;2022-09-01T16:12:56;25.80;54.60
27797;DHT22;15177;50.844;4.412;2022-09-01T16:15:23;26.00;53.90
27797;DHT22;15177;50.844;4.412;2022-09-01T16:23:48;25.50;54.20
27797;DHT22;15177;50.844;4.412;2022-09-01T16:26:14;25.30;54.80
27797;DHT22;15177;50.844;4.412;2022-09-01T16:28:47;25.40;54.50
27797;DHT22;15177;50.844;4.412;2022-09-01T16:31:16;25.50;54.20
27797;DHT22;15177;50.844;4.412;2022-09-01T16:33:51;25.50;54.50
27797;DHT22;15177;50.844;4.412;2022-09-01T16:39:46;25.60;54.80
27797;DHT22;15177;50.844;4.412;2022-09-01T16:50:24;25.70;54.50
27797;DHT22;15177;50.844;4.412;2022-09-01T17:01:37;25.20;55.40
27797;DHT22;15177;50.844;4.412;2022-09-01T17:12:40;25.10;55.60
27797;DHT22;15177;50.844;4.412;2022-09-01T17:15:14;25.10;55.40
27797;DHT22;15177;50.844;4.412;2022-09-01T17:18:15;25.00;55.10
27797;DHT22;15177;50.844;4.412;2022-09-01T17:20:48;24.90;55.60
27797;DHT22;15177;50.844;4.412;2022-09-01T17:23:21;25.00;55.60
27797;DHT22;15177;50.844;4.412;2022-09-01T17:26:02;25.10;55.80
27797;DHT22;15177;50.844;4.412;2022-09-01T17:28:35;25.10;56.10
27797;DHT22;15177;50.844;4.412;2022-09-01T17:34:04;25.20;55.60
27797;DHT22;15177;50.844;4.412;2022-09-01T17:37:00;25.10;55.80
27797;DHT22;15177;50.844;4.412;2022-09-01T17:48:11;24.90;56.20
27797;DHT22;15177;50.844;4.412;2022-09-01T17:56:55;24.70;56.80